createdAt,value
2017-10-14T00:02:09.922Z,8.77
2017-10-14T00:04:36.526Z,8.90
2017-10-14T00:07:03.158Z,10.27
2017-10-14T00:09:29.764Z,9.70
2017-10-14T00:11:56.371Z,8.15
2017-10-14T00:14:23.029Z,8.75
2017-10-14T00:16:49.630Z,8.50
2017-10-14T00:19:16.306Z,9.48
2017-10-14T00:21:42.946Z,9.38
2017-10-14T00:24:09.551Z,9.88
2017-10-14T00:26:36.227Z,10.40
2017-10-14T00:29:02.866Z,10.63
2017-10-14T00:31:29.479Z,10.65
2017-10-14T00:33:56.108Z,9.98
2017-10-14T00:36:22.727Z,9.52
2017-10-14T00:38:49.335Z,9.75
2017-10-14T00:41:16.054Z,11.48
2017-10-14T00:43:42.666Z,10.45
2017-10-14T00:46:09.279Z,11.90
2017-10-14T00:48:35.901Z,9.73
2017-10-14T00:51:02.614Z,9.65
2017-10-14T00:53:29.250Z,9.88
2017-10-14T00:55:55.882Z,9.63
2017-10-14T00:58:22.491Z,10.45
2017-10-14T01:00:49.101Z,9.65
2017-10-14T01:03:15.811Z,9.48
2017-10-14T01:05:42.422Z,10.15
2017-10-14T01:08:09.031Z,10.85
2017-10-14T01:10:35.663Z,12.00
2017-10-14T01:13:02.273Z,10.88
2017-10-14T01:15:28.903Z,9.20
2017-10-14T01:17:55.637Z,10.25
2017-10-14T01:20:22.254Z,10.88
2017-10-14T01:22:48.866Z,9.48
2017-10-14T01:25:15.490Z,9.05
2017-10-14T01:27:42.095Z,8.82
2017-10-14T01:30:08.698Z,9.98
2017-10-14T01:32:35.330Z,8.60
2017-10-14T01:35:01.934Z,9.40
2017-10-14T01:37:28.654Z,8.13
2017-10-14T01:39:55.389Z,9.25
2017-10-14T01:42:21.990Z,8.00
2017-10-14T01:44:48.670Z,8.55
2017-10-14T01:47:15.291Z,8.32
2017-10-14T01:49:41.946Z,9.15
2017-10-14T01:52:08.553Z,9.05
2017-10-14T01:54:35.253Z,7.70
2017-10-14T01:57:01.966Z,8.30
2017-10-14T01:59:28.575Z,10.05
2017-10-14T02:01:55.246Z,9.73
2017-10-14T02:04:21.856Z,9.98
2017-10-14T02:06:48.527Z,9.98
2017-10-14T02:09:15.160Z,9.48
2017-10-14T02:11:41.762Z,9.43
2017-10-14T02:14:08.375Z,9.80
2017-10-14T02:16:35.083Z,9.88
2017-10-14T02:19:01.695Z,9.10
2017-10-14T02:21:28.300Z,9.65
2017-10-14T02:23:55.002Z,8.93
2017-10-14T02:26:21.642Z,10.68
2017-10-14T02:28:48.251Z,9.50
2017-10-14T02:31:14.883Z,9.25
2017-10-14T02:33:41.491Z,9.70
2017-10-14T02:36:08.103Z,8.77
2017-10-14T02:38:34.718Z,8.25
2017-10-14T02:41:01.326Z,9.10
2017-10-14T02:43:27.935Z,9.40
2017-10-14T02:45:54.563Z,10.10
2017-10-14T02:48:21.459Z,9.40
2017-10-14T02:50:48.064Z,8.93
2017-10-14T02:53:14.678Z,9.32
2017-10-14T02:55:41.279Z,8.30
2017-10-14T02:58:07.947Z,8.15
2017-10-14T03:00:34.566Z,9.48
2017-10-14T03:03:01.221Z,8.55
2017-10-14T03:05:27.832Z,9.32
2017-10-14T03:07:54.454Z,9.82
2017-10-14T03:10:21.064Z,9.35
2017-10-14T03:12:47.675Z,10.57
2017-10-14T03:15:14.293Z,10.98
2017-10-14T03:17:40.919Z,10.48
2017-10-14T03:20:07.542Z,9.43
2017-10-14T03:22:34.150Z,9.75
2017-10-14T03:25:00.878Z,11.73
2017-10-14T03:27:27.506Z,11.80
2017-10-14T03:29:54.118Z,10.75
2017-10-14T03:32:20.835Z,9.82
2017-10-14T03:34:47.533Z,9.00
2017-10-14T03:37:14.178Z,9.80
2017-10-14T03:39:40.787Z,11.38
2017-10-14T03:42:07.412Z,10.52
2017-10-14T03:44:34.086Z,9.15
2017-10-14T03:47:00.773Z,8.93
2017-10-14T03:49:27.398Z,9.77
2017-10-14T03:51:54.003Z,9.48
2017-10-14T03:54:20.820Z,9.65
2017-10-14T03:56:47.530Z,9.02
2017-10-14T03:59:14.133Z,10.80
2017-10-14T04:01:40.751Z,10.18
2017-10-14T04:04:07.411Z,9.93
2017-10-14T04:06:34.019Z,9.18
2017-10-14T04:09:00.626Z,9.40
2017-10-14T04:11:27.326Z,9.50
2017-10-14T04:13:53.958Z,9.55
2017-10-14T04:16:20.576Z,9.95
2017-10-14T04:18:47.216Z,10.48
2017-10-14T04:21:13.882Z,9.18
2017-10-14T04:23:40.869Z,8.73
2017-10-14T04:26:07.568Z,9.65
2017-10-14T04:28:34.174Z,9.75
2017-10-14T04:31:00.786Z,9.10
2017-10-14T04:33:27.415Z,8.82
2017-10-14T04:35:54.018Z,7.43
2017-10-14T04:38:21.015Z,8.00
2017-10-14T04:40:47.684Z,8.43
2017-10-14T04:43:14.903Z,8.00
2017-10-14T04:45:41.858Z,8.10
2017-10-14T04:48:08.746Z,8.52
2017-10-14T04:50:35.845Z,8.98
2017-10-14T04:53:02.558Z,8.20
2017-10-14T04:55:29.207Z,8.73
2017-10-14T04:57:56.068Z,9.02
2017-10-14T05:00:23.938Z,8.10
2017-10-14T05:02:50.634Z,9.02
2017-10-14T05:05:17.323Z,8.95
2017-10-14T05:07:44.059Z,7.60
2017-10-14T05:10:10.815Z,8.77
2017-10-14T05:12:37.456Z,8.00
2017-10-14T05:15:04.138Z,8.38
2017-10-14T05:17:30.751Z,9.60
2017-10-14T05:19:57.375Z,9.00
2017-10-14T05:22:24.525Z,8.68
2017-10-14T05:24:51.235Z,7.80
2017-10-14T05:27:18.299Z,7.93
2017-10-14T05:29:45.179Z,7.95
2017-10-14T05:32:12.191Z,8.10
2017-10-14T05:34:38.843Z,8.80
2017-10-14T05:37:05.451Z,8.32
2017-10-14T05:39:32.720Z,7.80
2017-10-14T05:41:59.488Z,11.68
2017-10-14T05:44:26.135Z,14.10
2017-10-14T05:46:52.944Z,8.65
2017-10-14T05:49:19.710Z,7.35
2017-10-14T05:51:47.683Z,8.27
2017-10-14T05:54:14.706Z,8.30
2017-10-14T05:56:41.358Z,7.75
2017-10-14T05:59:07.974Z,9.90
2017-10-14T06:01:34.583Z,8.90
2017-10-14T06:04:01.259Z,8.40
2017-10-14T06:06:27.950Z,9.20
2017-10-14T06:08:54.697Z,8.27
2017-10-14T06:11:21.324Z,8.05
2017-10-14T06:13:47.946Z,8.38
2017-10-14T06:16:14.582Z,7.70
2017-10-14T06:18:41.382Z,7.97
2017-10-14T06:21:07.998Z,8.60
2017-10-14T06:23:34.626Z,9.90
2017-10-14T06:26:01.627Z,7.60
2017-10-14T06:28:30.108Z,8.52
2017-10-14T06:30:57.158Z,9.23
2017-10-14T06:33:24.110Z,7.03
2017-10-14T06:35:52.279Z,8.70
2017-10-14T06:38:20.833Z,7.65
2017-10-14T06:40:47.563Z,8.95
2017-10-14T06:43:15.371Z,7.37
2017-10-14T06:45:42.392Z,8.32
2017-10-14T06:48:09.094Z,8.00
2017-10-14T06:50:35.696Z,7.70
2017-10-14T06:53:02.309Z,7.93
2017-10-14T06:55:28.952Z,8.20
2017-10-14T06:57:55.556Z,8.13
2017-10-14T07:00:22.208Z,7.70
2017-10-14T07:02:48.815Z,7.35
2017-10-14T07:05:15.422Z,7.07
2017-10-14T07:07:42.035Z,6.95
2017-10-14T07:10:08.646Z,6.87
2017-10-14T07:12:35.261Z,7.90
2017-10-14T07:15:01.871Z,8.27
2017-10-14T07:17:28.478Z,7.28
2017-10-14T07:19:55.099Z,6.80
2017-10-14T07:22:21.706Z,7.57
2017-10-14T07:24:48.400Z,8.60
2017-10-14T07:27:15.020Z,7.45
2017-10-14T07:29:41.623Z,7.35
2017-10-14T07:32:08.253Z,8.00
2017-10-14T07:34:34.870Z,8.25
2017-10-14T07:37:01.595Z,7.75
2017-10-14T07:39:28.224Z,7.80
2017-10-14T07:41:54.834Z,6.95
2017-10-14T07:44:21.453Z,6.40
2017-10-14T07:46:48.060Z,7.10
2017-10-14T07:49:14.666Z,8.23
2017-10-14T07:51:41.286Z,7.40
2017-10-14T07:54:07.900Z,6.53
2017-10-14T07:56:34.498Z,6.82
2017-10-14T07:59:01.114Z,6.47
2017-10-14T08:01:27.719Z,6.43
2017-10-14T08:03:54.317Z,6.90
2017-10-14T08:06:20.938Z,6.40
2017-10-14T08:08:47.555Z,6.30
2017-10-14T08:11:14.164Z,7.00
2017-10-14T08:13:40.790Z,8.40
2017-10-14T08:16:07.418Z,6.32
2017-10-14T08:18:34.031Z,6.47
2017-10-14T08:21:02.395Z,5.78
2017-10-14T08:23:29.515Z,6.68
2017-10-14T08:25:56.142Z,6.78
2017-10-14T08:28:22.766Z,5.97
2017-10-14T08:30:49.536Z,6.07
2017-10-14T08:33:17.310Z,5.50
2017-10-14T08:35:44.697Z,6.12
2017-10-14T08:38:11.528Z,5.78
2017-10-14T08:40:39.576Z,6.25
2017-10-14T08:43:07.453Z,6.12
2017-10-14T08:45:35.001Z,6.25
2017-10-14T08:48:02.358Z,6.45
2017-10-14T08:50:31.987Z,5.28
2017-10-14T08:52:59.408Z,6.30
2017-10-14T08:55:26.782Z,5.20
2017-10-14T08:57:56.010Z,5.93
2017-10-14T09:00:24.770Z,5.18
2017-10-14T09:02:52.332Z,4.97
2017-10-14T09:05:19.481Z,5.40
2017-10-14T09:07:46.630Z,5.50
2017-10-14T09:10:13.330Z,6.78
2017-10-14T09:12:39.994Z,5.18
2017-10-14T09:15:07.368Z,5.32
2017-10-14T09:17:34.035Z,5.53
2017-10-14T09:20:00.720Z,5.15
2017-10-14T09:22:27.386Z,5.20
2017-10-14T09:24:54.643Z,5.35
2017-10-14T09:27:22.343Z,5.00
2017-10-14T09:29:49.878Z,4.50
2017-10-14T09:32:17.633Z,5.60
2017-10-14T09:34:44.254Z,4.97
2017-10-14T09:37:12.033Z,4.93
2017-10-14T09:39:38.675Z,5.43
2017-10-14T09:42:05.375Z,5.70
2017-10-14T09:44:31.978Z,4.87
2017-10-14T09:46:58.588Z,5.20
2017-10-14T09:49:25.198Z,4.57
2017-10-14T09:51:51.807Z,4.32
2017-10-14T09:54:18.428Z,3.72
2017-10-14T09:56:45.030Z,4.57
2017-10-14T09:59:11.644Z,4.15
2017-10-14T10:01:38.279Z,4.62
2017-10-14T10:04:04.881Z,4.15
2017-10-14T10:06:31.562Z,4.80
2017-10-14T10:08:58.179Z,4.12
2017-10-14T10:11:24.830Z,3.65
2017-10-14T10:13:51.454Z,3.72
2017-10-14T10:16:18.157Z,3.45
2017-10-14T10:18:44.754Z,3.28
2017-10-14T10:21:11.382Z,3.45
2017-10-14T10:23:37.996Z,3.50
2017-10-14T10:26:04.598Z,4.15
2017-10-14T10:28:31.219Z,5.03
2017-10-14T10:30:57.818Z,3.15
2017-10-14T10:33:24.426Z,3.87
2017-10-14T10:35:51.090Z,4.20
2017-10-14T10:38:17.704Z,2.37
2017-10-14T10:40:44.301Z,3.10
2017-10-14T10:43:10.922Z,4.40
2017-10-14T10:45:37.532Z,5.00
2017-10-14T10:48:04.225Z,3.58
2017-10-14T10:50:30.847Z,2.83
2017-10-14T10:52:57.500Z,2.90
2017-10-14T10:55:24.130Z,3.03
2017-10-14T10:57:50.750Z,2.67
2017-10-14T11:00:17.363Z,2.65
2017-10-14T11:02:44.048Z,2.55
2017-10-14T11:05:10.671Z,2.28
2017-10-14T11:07:37.278Z,1.92
2017-10-14T11:10:03.888Z,2.00
2017-10-14T11:12:30.507Z,2.60
2017-10-14T11:14:57.106Z,3.20
2017-10-14T11:17:23.706Z,2.60
2017-10-14T11:19:50.331Z,2.87
2017-10-14T11:22:16.930Z,3.58
2017-10-14T11:24:43.535Z,2.70
2017-10-14T11:27:10.159Z,2.47
2017-10-14T11:29:36.759Z,3.40
2017-10-14T11:32:03.365Z,2.03
2017-10-14T11:34:30.059Z,2.80
2017-10-14T11:36:56.665Z,2.30
2017-10-14T11:39:23.285Z,2.60
2017-10-14T11:41:49.903Z,2.30
2017-10-14T11:44:16.502Z,2.20
2017-10-14T11:46:43.107Z,2.50
2017-10-14T11:49:09.727Z,2.22
2017-10-14T11:51:36.339Z,1.98
2017-10-14T11:54:02.939Z,2.30
2017-10-14T11:56:29.559Z,2.25
2017-10-14T11:58:56.157Z,2.17
2017-10-14T12:01:22.764Z,1.95
2017-10-14T12:03:49.382Z,2.25
2017-10-14T12:06:16.047Z,2.22
2017-10-14T12:08:42.654Z,2.00
2017-10-14T12:11:09.326Z,2.25
2017-10-14T12:13:35.934Z,2.40
2017-10-14T12:16:02.541Z,2.03
2017-10-14T12:18:29.251Z,2.25
2017-10-14T12:20:55.858Z,1.75
2017-10-14T12:23:22.518Z,2.40
2017-10-14T12:25:49.167Z,1.65
2017-10-14T12:28:15.798Z,1.90
2017-10-14T12:30:42.402Z,1.87
2017-10-14T12:33:09.080Z,1.70
2017-10-14T12:35:35.719Z,1.77
2017-10-14T12:38:02.327Z,1.70
2017-10-14T12:40:28.958Z,1.77
2017-10-14T12:42:55.579Z,1.55
2017-10-14T12:45:22.194Z,1.60
2017-10-14T12:47:48.804Z,1.97
2017-10-14T12:50:15.403Z,2.33
2017-10-14T12:52:42.020Z,1.70
2017-10-14T12:55:08.669Z,1.80
2017-10-14T12:57:35.367Z,1.70
2017-10-14T13:00:02.004Z,1.67
2017-10-14T13:02:28.642Z,1.40
2017-10-14T13:04:55.262Z,1.60
2017-10-14T13:07:21.866Z,1.90
2017-10-14T13:09:48.504Z,1.20
2017-10-14T13:12:15.130Z,1.23
2017-10-14T13:14:41.730Z,1.60
2017-10-14T13:17:08.325Z,1.53
2017-10-14T13:19:34.945Z,1.90
2017-10-14T13:22:01.663Z,1.67
2017-10-14T13:24:28.298Z,1.37
2017-10-14T13:26:54.917Z,1.80
2017-10-14T13:29:21.575Z,1.83
2017-10-14T13:31:48.169Z,1.57
2017-10-14T13:34:14.846Z,1.33
2017-10-14T13:36:41.446Z,1.27
2017-10-14T13:39:08.074Z,1.23
2017-10-14T13:41:34.775Z,1.73
2017-10-14T13:44:01.401Z,1.80
2017-10-14T13:46:28.038Z,1.27
2017-10-14T13:48:54.651Z,1.27
2017-10-14T13:51:21.327Z,1.63
2017-10-14T13:53:47.955Z,1.60
2017-10-14T13:56:14.563Z,1.75
2017-10-14T13:58:41.283Z,1.50
2017-10-14T14:01:07.925Z,1.95
2017-10-14T14:03:34.530Z,1.92
2017-10-14T14:06:01.140Z,1.75
2017-10-14T14:08:27.763Z,1.50
2017-10-14T14:10:54.375Z,1.62
2017-10-14T14:13:20.983Z,1.77
2017-10-14T14:15:47.606Z,1.87
2017-10-14T14:18:14.247Z,1.73
2017-10-14T14:20:40.848Z,2.25
2017-10-14T14:23:07.526Z,2.53
2017-10-14T14:25:34.138Z,1.80
2017-10-14T14:28:00.763Z,1.50
2017-10-14T14:30:27.366Z,2.12
2017-10-14T14:32:53.970Z,1.65
2017-10-14T14:35:20.602Z,1.98
2017-10-14T14:37:47.215Z,1.92
2017-10-14T14:40:13.817Z,1.50
2017-10-14T14:42:40.442Z,2.70
2017-10-14T14:45:07.046Z,2.10
2017-10-14T14:47:33.718Z,1.65
2017-10-14T14:50:00.346Z,2.08
2017-10-14T14:52:26.986Z,1.85
2017-10-14T14:54:53.626Z,1.20
2017-10-14T14:57:20.250Z,1.50
2017-10-14T14:59:46.907Z,1.70
2017-10-14T15:02:13.531Z,1.67
2017-10-14T15:04:40.126Z,1.70
2017-10-14T15:07:06.727Z,1.97
2017-10-14T15:09:33.347Z,1.73
2017-10-14T15:11:59.946Z,1.40
2017-10-14T15:14:26.546Z,1.60
2017-10-14T15:16:53.172Z,1.20
2017-10-14T15:19:19.813Z,1.70
2017-10-14T15:21:46.422Z,2.40
2017-10-14T15:24:13.052Z,2.37
2017-10-14T15:26:39.654Z,3.77
2017-10-14T15:29:06.287Z,2.77
2017-10-14T15:31:32.911Z,2.30
2017-10-14T15:33:59.514Z,2.33
2017-10-14T15:36:26.131Z,1.50
2017-10-14T15:38:52.827Z,2.30
2017-10-14T15:41:19.430Z,1.27
2017-10-14T15:43:46.059Z,1.70
2017-10-14T15:46:12.668Z,1.40
2017-10-14T15:48:39.382Z,1.47
2017-10-14T15:51:06.019Z,1.80
2017-10-14T15:53:32.618Z,1.70
2017-10-14T15:55:59.227Z,2.60
2017-10-14T15:58:25.838Z,1.97
2017-10-14T16:00:52.521Z,1.70
2017-10-14T16:03:19.213Z,2.30
2017-10-14T16:05:45.821Z,2.33
2017-10-14T16:08:12.426Z,1.97
2017-10-14T16:10:39.047Z,2.33
2017-10-14T16:13:05.671Z,3.23
2017-10-14T16:15:32.273Z,2.40
2017-10-14T16:17:58.902Z,2.95
2017-10-14T16:20:25.510Z,3.75
2017-10-14T16:22:52.131Z,3.42
2017-10-14T16:25:18.863Z,4.60
2017-10-14T16:27:45.545Z,3.97
2017-10-14T16:30:12.180Z,4.03
2017-10-14T16:32:38.794Z,4.05
2017-10-14T16:35:05.402Z,4.40
2017-10-14T16:37:32.063Z,5.72
2017-10-14T16:39:58.701Z,5.80
2017-10-14T16:42:25.303Z,5.32
2017-10-14T16:44:51.907Z,5.43
2017-10-14T16:47:18.530Z,5.70
2017-10-14T16:49:45.149Z,5.05
2017-10-14T16:52:11.754Z,4.95
2017-10-14T16:54:39.347Z,5.03
2017-10-14T16:57:05.950Z,4.97
2017-10-14T16:59:32.558Z,4.93
2017-10-14T17:01:59.183Z,4.80
2017-10-14T17:04:25.803Z,5.18
2017-10-14T17:06:52.442Z,6.18
2017-10-14T17:09:19.131Z,5.35
2017-10-14T17:11:45.732Z,6.00
2017-10-14T17:14:12.338Z,5.47
2017-10-14T17:16:38.960Z,6.70
2017-10-14T17:19:05.636Z,5.85
2017-10-14T17:21:32.245Z,6.40
2017-10-14T17:23:58.920Z,8.65
2017-10-14T17:26:25.522Z,7.25
2017-10-14T17:28:52.142Z,6.93
2017-10-14T17:31:18.747Z,7.00
2017-10-14T17:33:45.373Z,6.62
2017-10-14T17:36:11.971Z,6.30
2017-10-14T17:38:38.589Z,7.47
2017-10-14T17:41:05.205Z,6.97
2017-10-14T17:43:31.886Z,6.80
2017-10-14T17:45:58.497Z,6.72
2017-10-14T17:48:25.115Z,6.20
2017-10-14T17:50:51.822Z,6.12
2017-10-14T17:53:18.453Z,7.70
2017-10-14T17:55:45.274Z,7.22
2017-10-14T17:58:11.874Z,7.30
2017-10-14T18:00:38.480Z,6.35
2017-10-14T18:03:05.122Z,6.65
2017-10-14T18:05:31.731Z,6.85
2017-10-14T18:07:58.343Z,7.47
2017-10-14T18:10:24.967Z,8.80
2017-10-14T18:12:51.566Z,7.72
2017-10-14T18:15:18.170Z,8.88
2017-10-14T18:17:44.799Z,9.02
2017-10-14T18:20:11.406Z,8.90
2017-10-14T18:22:38.014Z,9.40
2017-10-14T18:25:04.647Z,10.07
2017-10-14T18:27:31.253Z,8.63
2017-10-14T18:29:57.878Z,10.90
2017-10-14T18:32:24.495Z,14.40
2017-10-14T18:34:51.114Z,13.65
2017-10-14T18:37:17.767Z,12.50
2017-10-14T18:39:44.404Z,12.40
2017-10-14T18:42:11.033Z,12.68
2017-10-14T18:44:37.750Z,15.70
2017-10-14T18:47:04.424Z,12.63
2017-10-14T18:49:31.103Z,14.02
2017-10-14T18:51:57.822Z,12.82
2017-10-14T18:54:24.511Z,11.25
2017-10-14T18:56:51.444Z,10.60
2017-10-14T18:59:18.147Z,11.00
2017-10-14T19:01:45.145Z,10.23
2017-10-14T19:04:11.976Z,10.88
2017-10-14T19:06:38.628Z,9.75
2017-10-14T19:09:05.404Z,10.43
2017-10-14T19:11:35.377Z,16.37
2017-10-14T19:14:02.036Z,17.85
2017-10-14T19:16:28.711Z,14.70
2017-10-14T19:18:55.385Z,11.88
2017-10-14T19:21:22.082Z,10.65
2017-10-14T19:23:48.848Z,10.15
2017-10-14T19:26:15.565Z,12.37
2017-10-14T19:28:42.268Z,10.13
2017-10-14T19:31:08.987Z,8.40
2017-10-14T19:33:35.784Z,6.50
2017-10-14T19:36:02.694Z,8.52
2017-10-14T19:38:29.616Z,8.20
2017-10-14T19:40:56.461Z,9.65
2017-10-14T19:43:23.587Z,7.37
2017-10-14T19:45:50.554Z,8.93
2017-10-14T19:48:17.314Z,8.15
2017-10-14T19:50:44.033Z,8.20
2017-10-14T19:53:10.773Z,7.65
2017-10-14T19:55:37.457Z,7.32
2017-10-14T19:58:04.157Z,7.95
2017-10-14T20:00:30.802Z,6.20
2017-10-14T20:02:57.460Z,7.00
2017-10-14T20:05:24.071Z,7.50
2017-10-14T20:07:50.679Z,5.45
2017-10-14T20:10:17.356Z,8.05
2017-10-14T20:12:44.095Z,8.27
2017-10-14T20:15:10.805Z,10.07
2017-10-14T20:17:37.501Z,8.88
2017-10-14T20:20:04.212Z,10.20
2017-10-14T20:22:30.919Z,9.65
2017-10-14T20:24:57.669Z,8.95
2017-10-14T20:27:24.409Z,8.77
2017-10-14T20:29:51.204Z,9.02
2017-10-14T20:32:17.948Z,9.57
2017-10-14T20:34:44.694Z,12.02
2017-10-14T20:37:11.534Z,12.77
2017-10-14T20:39:38.232Z,11.15
2017-10-14T20:42:05.006Z,10.20
2017-10-14T20:44:31.690Z,11.77
2017-10-14T20:46:58.495Z,10.43
2017-10-14T20:49:25.248Z,10.35
2017-10-14T20:51:52.217Z,9.10
2017-10-14T20:54:18.892Z,8.32
2017-10-14T20:56:45.563Z,9.40
2017-10-14T20:59:12.185Z,9.50
2017-10-14T21:01:38.892Z,10.90
2017-10-14T21:04:05.535Z,10.27
2017-10-14T21:06:32.208Z,10.57
2017-10-14T21:08:58.836Z,11.20
2017-10-14T21:11:25.462Z,10.93
2017-10-14T21:13:52.167Z,12.20
2017-10-14T21:16:18.847Z,11.60
2017-10-14T21:18:45.482Z,10.57
2017-10-14T21:21:12.179Z,10.70
2017-10-14T21:23:38.842Z,9.90
2017-10-14T21:26:05.539Z,10.48
2017-10-14T21:28:32.383Z,10.07
2017-10-14T21:30:59.225Z,9.93
2017-10-14T21:33:26.070Z,10.32
2017-10-14T21:35:53.015Z,9.43
2017-10-14T21:38:19.856Z,10.48
2017-10-14T21:40:46.806Z,10.50
2017-10-14T21:43:13.651Z,9.32
2017-10-14T21:45:40.557Z,8.80
2017-10-14T21:48:07.429Z,9.98
2017-10-14T21:50:34.387Z,9.73
2017-10-14T21:53:01.240Z,10.00
2017-10-14T21:55:27.949Z,9.45
2017-10-14T21:57:54.562Z,10.00
2017-10-14T22:00:21.219Z,10.25
2017-10-14T22:02:47.848Z,10.13
2017-10-14T22:05:14.454Z,9.68
2017-10-14T22:07:41.070Z,10.02
2017-10-14T22:10:07.700Z,10.50
2017-10-14T22:12:34.516Z,9.13
2017-10-14T22:15:01.154Z,8.75
2017-10-14T22:17:27.870Z,9.07
2017-10-14T22:19:54.646Z,9.70
2017-10-14T22:22:21.250Z,9.80
2017-10-14T22:24:47.877Z,9.20
2017-10-14T22:27:14.528Z,10.10
2017-10-14T22:29:41.182Z,11.10
2017-10-14T22:32:07.888Z,10.75
2017-10-14T22:34:34.585Z,9.85
2017-10-14T22:37:01.299Z,10.98
2017-10-14T22:39:28.007Z,9.77
2017-10-14T22:41:54.713Z,10.30
2017-10-14T22:44:21.366Z,9.52
2017-10-14T22:46:48.023Z,9.23
2017-10-14T22:49:14.730Z,9.30
2017-10-14T22:51:41.368Z,10.60
2017-10-14T22:54:08.038Z,10.35
2017-10-14T22:56:34.686Z,10.75
2017-10-14T22:59:01.337Z,9.90
2017-10-14T23:01:28.037Z,9.63
2017-10-14T23:03:54.708Z,10.77
2017-10-14T23:06:21.404Z,9.60
2017-10-14T23:08:48.064Z,9.07
2017-10-14T23:11:14.766Z,9.75
2017-10-14T23:13:41.395Z,10.30
2017-10-14T23:16:08.006Z,10.13
2017-10-14T23:18:34.611Z,9.88
2017-10-14T23:21:01.321Z,10.20
2017-10-14T23:23:27.939Z,10.80
2017-10-14T23:25:54.603Z,9.98
2017-10-14T23:28:21.231Z,10.52
2017-10-14T23:30:47.842Z,10.38
2017-10-14T23:33:14.450Z,9.90
2017-10-14T23:35:41.076Z,12.48
2017-10-14T23:38:07.687Z,12.60
2017-10-14T23:40:34.318Z,11.80
2017-10-14T23:43:00.931Z,12.30
2017-10-14T23:45:27.541Z,11.57
2017-10-14T23:47:54.255Z,10.60
2017-10-14T23:50:20.891Z,9.82
2017-10-14T23:52:47.494Z,8.45
2017-10-14T23:55:14.128Z,9.07
2017-10-14T23:57:40.741Z,10.05
